createdAt,value
2023-12-10T00:02:18.982Z,8.99
2023-12-10T00:05:04.668Z,8.97
2023-12-10T00:07:49.845Z,8.91
2023-12-10T00:10:34.786Z,8.97
2023-12-10T00:13:19.787Z,9.02
2023-12-10T00:16:05.073Z,9.04
2023-12-10T00:18:50.015Z,8.93
2023-12-10T00:21:35.250Z,8.96
2023-12-10T00:24:20.149Z,8.94
2023-12-10T00:27:05.318Z,8.92
2023-12-10T00:29:50.215Z,8.89
2023-12-10T00:32:35.393Z,8.85
2023-12-10T00:35:20.620Z,8.86
2023-12-10T00:38:05.919Z,8.71
2023-12-10T00:40:50.851Z,8.72
2023-12-10T00:43:35.779Z,8.65
2023-12-10T00:46:20.630Z,8.70
2023-12-10T00:49:05.655Z,8.68
2023-12-10T00:51:51.208Z,8.81
2023-12-10T00:54:36.564Z,8.79
2023-12-10T00:57:21.529Z,8.90
2023-12-10T01:00:07.401Z,8.85
2023-12-10T01:02:52.329Z,8.89
2023-12-10T01:05:37.458Z,8.87
2023-12-10T01:08:22.340Z,8.89
2023-12-10T01:11:07.521Z,8.82
2023-12-10T01:13:52.360Z,8.84
2023-12-10T01:16:37.433Z,8.99
2023-12-10T01:19:22.305Z,8.88
2023-12-10T01:22:07.772Z,8.90
2023-12-10T01:24:53.008Z,8.88
2023-12-10T01:27:38.206Z,8.91
2023-12-10T01:30:23.321Z,8.90
2023-12-10T01:33:08.875Z,9.02
2023-12-10T01:35:54.310Z,9.05
2023-12-10T01:38:39.561Z,8.93
2023-12-10T01:41:24.636Z,9.01
2023-12-10T01:44:09.738Z,8.97
2023-12-10T01:46:56.476Z,9.02
2023-12-10T01:49:41.734Z,9.01
2023-12-10T01:52:27.166Z,8.99
2023-12-10T01:55:13.403Z,9.01
2023-12-10T01:57:58.932Z,9.04
2023-12-10T02:00:44.184Z,9.10
2023-12-10T02:03:32.293Z,9.02
2023-12-10T02:06:17.370Z,9.06
2023-12-10T02:09:02.325Z,9.17
2023-12-10T02:11:47.397Z,9.18
2023-12-10T02:14:32.271Z,9.12
2023-12-10T02:17:17.205Z,9.16
2023-12-10T02:20:02.096Z,9.10
2023-12-10T02:22:58.330Z,9.11
2023-12-10T02:25:43.604Z,9.11
2023-12-10T02:28:28.575Z,9.12
2023-12-10T02:31:13.536Z,9.12
2023-12-10T02:33:58.756Z,9.09
2023-12-10T02:36:44.153Z,9.09
2023-12-10T02:39:29.355Z,8.95
2023-12-10T02:42:14.744Z,8.90
2023-12-10T02:45:00.029Z,8.78
2023-12-10T02:47:45.047Z,8.77
2023-12-10T02:50:30.387Z,8.72
2023-12-10T02:53:15.572Z,8.64
2023-12-10T02:56:00.779Z,8.64
2023-12-10T02:58:45.636Z,8.63
2023-12-10T03:01:30.785Z,8.60
2023-12-10T03:04:15.633Z,8.69
2023-12-10T03:07:00.681Z,8.71
2023-12-10T03:09:45.637Z,8.73
2023-12-10T03:12:31.395Z,8.75
2023-12-10T03:15:16.646Z,8.71
2023-12-10T03:18:01.944Z,8.67
2023-12-10T03:20:47.297Z,8.48
2023-12-10T03:23:32.194Z,8.43
2023-12-10T03:26:17.044Z,8.39
2023-12-10T03:29:01.968Z,8.40
2023-12-10T03:31:46.880Z,8.45
2023-12-10T03:34:32.088Z,8.40
2023-12-10T03:37:17.217Z,8.42
2023-12-10T03:40:02.252Z,8.49
2023-12-10T03:42:47.075Z,8.50
2023-12-10T03:45:32.718Z,8.45
2023-12-10T03:48:17.636Z,8.46
2023-12-10T03:51:03.032Z,8.50
2023-12-10T03:53:48.541Z,8.47
2023-12-10T03:56:33.818Z,8.39
2023-12-10T03:59:18.812Z,8.33
2023-12-10T04:02:04.128Z,8.27
2023-12-10T04:04:49.285Z,8.19
2023-12-10T04:07:34.160Z,8.21
2023-12-10T04:10:19.112Z,8.22
2023-12-10T04:13:03.936Z,8.06
2023-12-10T04:15:49.370Z,8.02
2023-12-10T04:18:36.841Z,7.99
2023-12-10T04:21:23.493Z,7.89
2023-12-10T04:24:08.544Z,7.81
2023-12-10T04:26:53.870Z,7.81
2023-12-10T04:29:38.611Z,7.73
2023-12-10T04:32:23.582Z,7.69
2023-12-10T04:35:08.925Z,7.61
2023-12-10T04:37:54.122Z,7.54
2023-12-10T04:40:39.672Z,7.53
2023-12-10T04:43:25.014Z,7.54
2023-12-10T04:46:10.003Z,7.48
2023-12-10T04:48:55.531Z,7.45
2023-12-10T04:51:40.989Z,7.37
2023-12-10T04:54:25.946Z,7.36
2023-12-10T04:57:10.970Z,7.32
2023-12-10T04:59:55.807Z,7.32
2023-12-10T05:02:40.780Z,7.27
2023-12-10T05:05:25.685Z,7.21
2023-12-10T05:08:10.494Z,7.15
2023-12-10T05:10:55.810Z,7.16
2023-12-10T05:13:40.741Z,7.13
2023-12-10T05:16:26.373Z,7.06
2023-12-10T05:19:11.280Z,7.11
2023-12-10T05:21:56.366Z,7.12
2023-12-10T05:24:41.903Z,7.13
2023-12-10T05:27:27.080Z,7.13
2023-12-10T05:30:12.858Z,7.13
2023-12-10T05:32:58.045Z,7.08
2023-12-10T05:35:43.363Z,7.10
2023-12-10T05:38:28.120Z,7.10
2023-12-10T05:41:13.063Z,7.08
2023-12-10T05:43:57.984Z,7.13
2023-12-10T05:46:43.507Z,7.09
2023-12-10T05:49:30.175Z,7.07
2023-12-10T05:52:15.122Z,7.07
2023-12-10T05:55:00.266Z,6.97
2023-12-10T05:57:45.558Z,7.09
2023-12-10T06:00:30.474Z,7.06
2023-12-10T06:03:15.634Z,7.04
2023-12-10T06:06:00.963Z,7.08
2023-12-10T06:08:46.448Z,7.08
2023-12-10T06:11:31.368Z,7.08
2023-12-10T06:14:16.384Z,7.06
2023-12-10T06:17:01.254Z,7.09
2023-12-10T06:19:46.796Z,7.08
2023-12-10T06:22:32.101Z,7.10
2023-12-10T06:25:17.423Z,7.18
2023-12-10T06:28:02.666Z,7.23
2023-12-10T06:30:47.510Z,7.03
2023-12-10T06:33:32.394Z,7.09
2023-12-10T06:36:17.723Z,7.09
2023-12-10T06:39:02.608Z,7.12
2023-12-10T06:41:47.499Z,7.14
2023-12-10T06:44:32.387Z,7.15
2023-12-10T06:47:17.371Z,7.09
2023-12-10T06:50:02.264Z,7.06
2023-12-10T06:52:47.056Z,7.15
2023-12-10T06:55:32.340Z,7.08
2023-12-10T06:58:17.459Z,7.10
2023-12-10T07:01:03.680Z,7.18
2023-12-10T07:03:48.894Z,7.16
2023-12-10T07:06:34.641Z,7.14
2023-12-10T07:09:19.556Z,7.22
2023-12-10T07:12:04.712Z,7.11
2023-12-10T07:14:51.626Z,7.08
2023-12-10T07:17:38.030Z,7.04
2023-12-10T07:20:23.807Z,7.12
2023-12-10T07:23:08.671Z,7.07
2023-12-10T07:25:53.678Z,7.04
2023-12-10T07:28:38.558Z,7.02
2023-12-10T07:31:24.031Z,7.07
2023-12-10T07:34:09.019Z,7.13
2023-12-10T07:36:54.292Z,7.16
2023-12-10T07:39:40.015Z,7.12
2023-12-10T07:42:25.172Z,7.09
2023-12-10T07:45:10.713Z,7.10
2023-12-10T07:47:56.213Z,7.11
2023-12-10T07:50:41.034Z,7.11
2023-12-10T07:53:26.041Z,7.14
2023-12-10T07:56:10.848Z,7.19
2023-12-10T07:58:55.873Z,7.22
2023-12-10T08:01:41.361Z,7.28
2023-12-10T08:04:26.470Z,7.33
2023-12-10T08:07:11.352Z,7.32
2023-12-10T08:09:56.343Z,7.30
2023-12-10T08:12:42.303Z,7.31
2023-12-10T08:15:27.595Z,7.38
2023-12-10T08:18:12.709Z,7.30
2023-12-10T08:20:58.013Z,7.38
2023-12-10T08:23:43.330Z,7.34
2023-12-10T08:26:28.597Z,7.38
2023-12-10T08:29:13.519Z,7.40
2023-12-10T08:31:58.535Z,7.42
2023-12-10T08:34:43.442Z,7.43
2023-12-10T08:37:28.297Z,7.49
2023-12-10T08:40:13.221Z,7.50
2023-12-10T08:42:58.133Z,7.53
2023-12-10T08:45:43.005Z,7.61
2023-12-10T08:48:30.558Z,7.61
2023-12-10T08:51:15.928Z,7.65
2023-12-10T08:54:00.742Z,7.74
2023-12-10T08:56:45.574Z,7.78
2023-12-10T08:59:30.459Z,7.89
2023-12-10T09:02:15.435Z,7.91
2023-12-10T09:05:00.669Z,8.00
2023-12-10T09:07:45.857Z,8.03
2023-12-10T09:10:30.837Z,8.07
2023-12-10T09:13:15.621Z,8.19
2023-12-10T09:16:01.099Z,8.19
2023-12-10T09:18:46.561Z,8.19
2023-12-10T09:21:31.971Z,8.21
2023-12-10T09:24:17.462Z,8.18
2023-12-10T09:27:02.430Z,8.18
2023-12-10T09:29:47.522Z,8.22
2023-12-10T09:32:33.049Z,8.15
2023-12-10T09:35:18.650Z,8.17
2023-12-10T09:38:03.903Z,8.17
2023-12-10T09:40:48.895Z,8.19
2023-12-10T09:43:33.897Z,8.17
2023-12-10T09:46:18.848Z,8.16
2023-12-10T09:49:04.246Z,8.21
2023-12-10T09:51:49.201Z,8.14
2023-12-10T09:54:34.828Z,8.14
2023-12-10T09:57:21.046Z,8.14
2023-12-10T10:00:06.738Z,8.15
2023-12-10T10:02:51.998Z,8.21
2023-12-10T10:05:37.153Z,8.23
2023-12-10T10:08:22.305Z,8.18
2023-12-10T10:11:07.292Z,8.22
2023-12-10T10:13:52.614Z,8.23
2023-12-10T10:16:38.304Z,8.29
2023-12-10T10:19:23.404Z,8.23
2023-12-10T10:22:08.851Z,8.25
2023-12-10T10:24:54.704Z,8.20
2023-12-10T10:27:39.721Z,8.20
2023-12-10T10:30:25.156Z,8.19
2023-12-10T10:33:10.714Z,8.21
2023-12-10T10:35:56.192Z,8.16
2023-12-10T10:38:41.265Z,8.15
2023-12-10T10:41:26.644Z,8.16
2023-12-10T10:44:11.777Z,8.12
2023-12-10T10:46:57.550Z,8.14
2023-12-10T10:49:45.861Z,8.14
2023-12-10T10:52:53.876Z,8.23
2023-12-10T10:55:39.104Z,8.20
2023-12-10T10:58:26.034Z,8.19
2023-12-10T11:01:37.738Z,8.18
2023-12-10T11:04:23.163Z,8.14
2023-12-10T11:07:09.315Z,8.13
2023-12-10T11:09:59.972Z,8.13
2023-12-10T11:12:45.519Z,8.17
2023-12-10T11:15:31.663Z,8.14
2023-12-10T11:18:16.882Z,8.14
2023-12-10T11:21:02.362Z,8.23
2023-12-10T11:23:47.341Z,8.21
2023-12-10T11:26:32.298Z,8.26
2023-12-10T11:29:17.304Z,8.22
2023-12-10T11:32:02.198Z,8.24
2023-12-10T11:34:47.300Z,8.29
2023-12-10T11:37:32.951Z,8.22
2023-12-10T11:40:18.241Z,8.28
2023-12-10T11:43:03.806Z,8.25
2023-12-10T11:45:49.215Z,8.23
2023-12-10T11:48:34.648Z,8.25
2023-12-10T11:51:20.216Z,8.23
2023-12-10T11:54:06.487Z,8.26
2023-12-10T11:56:51.787Z,8.29
2023-12-10T11:59:37.628Z,8.26
2023-12-10T12:02:24.161Z,8.30
2023-12-10T12:05:10.269Z,8.38
2023-12-10T12:07:55.307Z,8.31
2023-12-10T12:10:40.712Z,8.37
2023-12-10T12:13:25.885Z,8.43
2023-12-10T12:16:11.260Z,8.47
2023-12-10T12:18:56.602Z,8.39
2023-12-10T12:21:42.011Z,8.38
2023-12-10T12:24:26.975Z,8.47
2023-12-10T12:27:12.956Z,8.43
2023-12-10T12:29:57.937Z,8.53
2023-12-10T12:32:43.067Z,8.45
2023-12-10T12:35:28.860Z,8.49
2023-12-10T12:38:13.995Z,8.52
2023-12-10T12:40:59.162Z,8.49
2023-12-10T12:43:44.096Z,8.51
2023-12-10T12:46:29.084Z,8.53
2023-12-10T12:49:14.154Z,8.61
2023-12-10T12:51:59.490Z,8.65
2023-12-10T12:54:44.428Z,8.61
2023-12-10T12:57:29.827Z,8.66
2023-12-10T13:00:15.526Z,8.56
2023-12-10T13:03:00.686Z,8.59
2023-12-10T13:05:46.144Z,8.62
2023-12-10T13:08:31.552Z,8.80
2023-12-10T13:11:16.452Z,8.99
2023-12-10T13:14:01.560Z,9.01
2023-12-10T13:16:46.560Z,9.53
2023-12-10T13:19:32.398Z,9.96
2023-12-10T13:22:17.697Z,9.93
2023-12-10T13:25:02.945Z,10.22
2023-12-10T13:27:48.277Z,10.23
2023-12-10T13:30:33.762Z,10.19
2023-12-10T13:33:19.471Z,9.89
2023-12-10T13:36:05.834Z,9.85
2023-12-10T13:38:51.045Z,9.76
2023-12-10T13:41:35.936Z,9.48
2023-12-10T13:44:21.378Z,9.25
2023-12-10T13:47:06.717Z,9.11
2023-12-10T13:49:51.876Z,8.90
2023-12-10T13:52:37.109Z,8.91
2023-12-10T13:55:22.180Z,8.71
2023-12-10T13:58:07.123Z,8.76
2023-12-10T14:00:52.266Z,8.72
2023-12-10T14:03:37.788Z,8.67
2023-12-10T14:06:23.447Z,8.58
2023-12-10T14:09:08.701Z,8.63
2023-12-10T14:11:53.778Z,8.65
2023-12-10T14:14:38.789Z,8.66
2023-12-10T14:17:23.658Z,8.58
2023-12-10T14:20:09.035Z,8.59
2023-12-10T14:22:54.202Z,8.64
2023-12-10T14:25:41.581Z,8.59
2023-12-10T14:28:28.957Z,8.54
2023-12-10T14:31:14.190Z,8.50
2023-12-10T14:33:59.137Z,8.55
2023-12-10T14:36:43.976Z,8.58
2023-12-10T14:39:28.953Z,8.53
2023-12-10T14:42:14.409Z,8.60
2023-12-10T14:44:59.337Z,8.67
2023-12-10T14:47:44.392Z,8.68
2023-12-10T14:50:29.835Z,8.65
2023-12-10T14:53:14.907Z,8.69
2023-12-10T14:56:00.200Z,8.74
2023-12-10T14:58:45.028Z,8.68
2023-12-10T15:01:30.018Z,8.67
2023-12-10T15:04:15.523Z,8.69
2023-12-10T15:07:00.726Z,8.61
2023-12-10T15:09:45.698Z,8.57
2023-12-10T15:12:30.940Z,8.59
2023-12-10T15:15:15.745Z,8.65
2023-12-10T15:18:00.860Z,8.57
2023-12-10T15:20:46.310Z,8.53
2023-12-10T15:23:31.195Z,8.55
2023-12-10T15:26:16.561Z,8.69
2023-12-10T15:29:01.675Z,8.74
2023-12-10T15:31:46.997Z,8.79
2023-12-10T15:34:31.856Z,8.74
2023-12-10T15:37:16.790Z,8.90
2023-12-10T15:40:02.369Z,8.85
2023-12-10T15:42:47.648Z,8.90
2023-12-10T15:45:32.436Z,8.87
2023-12-10T15:48:17.478Z,8.90
2023-12-10T15:51:02.870Z,8.79
2023-12-10T15:53:47.746Z,8.87
2023-12-10T15:56:32.655Z,8.87
2023-12-10T15:59:17.519Z,8.80
2023-12-10T16:02:02.465Z,8.89
2023-12-10T16:04:47.922Z,8.95
2023-12-10T16:07:41.312Z,9.00
2023-12-10T16:10:34.123Z,8.94
2023-12-10T16:13:21.831Z,8.97
2023-12-10T16:16:09.015Z,9.01
2023-12-10T16:18:54.903Z,9.07
2023-12-10T16:21:40.374Z,8.95
2023-12-10T16:24:25.335Z,9.04
2023-12-10T16:27:10.645Z,9.14
2023-12-10T16:29:56.029Z,9.10
2023-12-10T16:32:41.156Z,9.16
2023-12-10T16:35:25.900Z,9.11
2023-12-10T16:38:10.954Z,9.18
2023-12-10T16:40:55.764Z,9.17
2023-12-10T16:43:43.139Z,9.21
2023-12-10T16:46:39.648Z,9.22
2023-12-10T16:49:25.726Z,9.27
2023-12-10T16:52:10.749Z,9.20
2023-12-10T16:54:55.586Z,9.22
2023-12-10T16:57:41.040Z,9.20
2023-12-10T17:00:26.394Z,9.18
2023-12-10T17:03:14.544Z,9.12
2023-12-10T17:05:59.785Z,9.16
2023-12-10T17:08:44.688Z,9.17
2023-12-10T17:11:29.747Z,9.14
2023-12-10T17:14:14.611Z,9.13
2023-12-10T17:16:59.645Z,9.10
2023-12-10T17:19:44.645Z,9.10
2023-12-10T17:22:29.988Z,9.07
2023-12-10T17:25:15.013Z,9.02
2023-12-10T17:28:00.456Z,8.96
2023-12-10T17:30:46.127Z,8.89
2023-12-10T17:33:31.404Z,8.92
2023-12-10T17:36:16.634Z,8.82
2023-12-10T17:39:01.644Z,8.82
2023-12-10T17:41:46.538Z,8.85
2023-12-10T17:44:33.425Z,8.77
2023-12-10T17:47:21.096Z,8.86
2023-12-10T17:50:07.167Z,8.83
2023-12-10T17:52:52.368Z,8.86
2023-12-10T17:55:37.946Z,8.80
2023-12-10T17:58:23.472Z,8.89
2023-12-10T18:01:08.443Z,9.00
2023-12-10T18:03:54.084Z,9.06
2023-12-10T18:06:39.361Z,9.09
2023-12-10T18:09:24.713Z,9.07
2023-12-10T18:12:09.566Z,9.04
2023-12-10T18:14:54.556Z,9.00
2023-12-10T18:17:41.191Z,9.08
2023-12-10T18:20:26.709Z,9.10
2023-12-10T18:23:11.735Z,9.16
2023-12-10T18:25:56.822Z,9.19
2023-12-10T18:28:45.091Z,9.22
2023-12-10T18:31:30.600Z,9.18
2023-12-10T18:34:16.097Z,9.24
2023-12-10T18:37:01.498Z,9.18
2023-12-10T18:39:46.516Z,9.13
2023-12-10T18:42:31.434Z,9.08
2023-12-10T18:45:16.341Z,8.86
2023-12-10T18:48:01.934Z,8.77
2023-12-10T18:50:48.012Z,8.53
2023-12-10T18:53:33.247Z,8.45
2023-12-10T18:56:18.132Z,8.37
2023-12-10T18:59:03.299Z,8.29
2023-12-10T19:01:48.138Z,8.23
2023-12-10T19:04:33.189Z,8.12
2023-12-10T19:07:18.554Z,8.09
2023-12-10T19:10:04.181Z,8.05
2023-12-10T19:12:49.513Z,7.92
2023-12-10T19:15:34.458Z,7.96
2023-12-10T19:18:20.039Z,7.92
2023-12-10T19:21:05.521Z,7.81
2023-12-10T19:23:50.640Z,7.83
2023-12-10T19:26:35.594Z,7.89
2023-12-10T19:29:20.553Z,7.90
2023-12-10T19:32:06.058Z,7.85
2023-12-10T19:34:50.936Z,7.78
2023-12-10T19:37:36.573Z,7.66
2023-12-10T19:40:21.773Z,7.65
2023-12-10T19:43:06.713Z,7.67
2023-12-10T19:45:51.736Z,7.58
2023-12-10T19:48:37.254Z,7.56
2023-12-10T19:51:22.459Z,7.54
2023-12-10T19:54:07.490Z,7.53
2023-12-10T19:56:52.388Z,7.44
2023-12-10T19:59:37.178Z,7.45
2023-12-10T20:02:22.137Z,7.45
2023-12-10T20:05:07.541Z,7.41
2023-12-10T20:07:52.699Z,7.39
2023-12-10T20:10:38.043Z,7.45
2023-12-10T20:13:23.309Z,7.45
2023-12-10T20:16:09.007Z,7.44
2023-12-10T20:18:54.161Z,7.45
2023-12-10T20:21:40.038Z,7.46
2023-12-10T20:24:33.235Z,7.54
2023-12-10T20:27:21.654Z,7.59
2023-12-10T20:30:07.223Z,7.56
2023-12-10T20:32:52.462Z,7.59
2023-12-10T20:35:38.861Z,7.69
2023-12-10T20:38:23.677Z,7.78
2023-12-10T20:41:09.242Z,7.77
2023-12-10T20:43:54.201Z,7.86
2023-12-10T20:46:38.977Z,7.96
2023-12-10T20:49:24.087Z,8.16
2023-12-10T20:52:09.562Z,8.42
2023-12-10T20:54:55.052Z,8.55
2023-12-10T20:57:40.606Z,8.59
2023-12-10T21:00:26.414Z,8.74
2023-12-10T21:03:11.794Z,8.86
2023-12-10T21:05:57.152Z,9.06
2023-12-10T21:08:42.093Z,9.07
2023-12-10T21:11:27.282Z,9.16
2023-12-10T21:14:12.691Z,9.21
2023-12-10T21:16:57.657Z,9.32
2023-12-10T21:19:42.705Z,9.32
2023-12-10T21:22:28.009Z,9.34
2023-12-10T21:25:14.571Z,9.42
2023-12-10T21:28:00.261Z,9.47
2023-12-10T21:30:45.511Z,9.41
2023-12-10T21:33:30.476Z,9.49
2023-12-10T21:36:15.418Z,9.49
2023-12-10T21:39:00.388Z,9.52
2023-12-10T21:41:45.345Z,9.52
2023-12-10T21:44:30.278Z,9.54
2023-12-10T21:47:15.761Z,9.67
2023-12-10T21:50:00.718Z,9.68
2023-12-10T21:52:46.107Z,9.74
2023-12-10T21:55:31.043Z,9.75
2023-12-10T21:58:16.087Z,9.78
2023-12-10T22:01:01.663Z,9.88
2023-12-10T22:03:46.543Z,9.86
2023-12-10T22:06:32.004Z,9.94
2023-12-10T22:09:17.417Z,9.87
2023-12-10T22:12:02.473Z,10.03
2023-12-10T22:14:47.860Z,10.06
2023-12-10T22:17:33.396Z,10.06
2023-12-10T22:20:18.825Z,10.20
2023-12-10T22:23:03.747Z,10.14
2023-12-10T22:25:48.677Z,10.13
2023-12-10T22:28:33.593Z,10.17
2023-12-10T22:31:18.625Z,10.13
2023-12-10T22:34:03.488Z,10.12
2023-12-10T22:36:48.824Z,10.02
2023-12-10T22:39:34.306Z,10.04
2023-12-10T22:42:19.077Z,10.03
2023-12-10T22:45:04.573Z,10.10
2023-12-10T22:47:50.536Z,10.14
2023-12-10T22:50:36.947Z,10.09
2023-12-10T22:53:24.573Z,10.27
2023-12-10T22:56:09.653Z,10.02
2023-12-10T22:58:54.968Z,10.09
2023-12-10T23:01:40.512Z,10.15
2023-12-10T23:04:25.954Z,10.10
2023-12-10T23:07:11.655Z,10.14
2023-12-10T23:09:56.825Z,10.13
2023-12-10T23:12:41.836Z,10.24
2023-12-10T23:15:29.715Z,10.23
2023-12-10T23:18:15.160Z,10.24
2023-12-10T23:21:00.190Z,10.26
2023-12-10T23:23:44.943Z,10.29
2023-12-10T23:26:29.938Z,10.18
2023-12-10T23:29:14.906Z,10.20
2023-12-10T23:31:59.798Z,10.24
2023-12-10T23:34:44.723Z,10.26
2023-12-10T23:37:29.832Z,10.27
2023-12-10T23:40:15.273Z,10.22
2023-12-10T23:43:00.766Z,10.23
2023-12-10T23:45:45.761Z,10.24
2023-12-10T23:48:31.198Z,10.25
2023-12-10T23:51:20.539Z,10.26
2023-12-10T23:54:05.900Z,10.29
2023-12-10T23:56:51.078Z,10.12
2023-12-10T23:59:36.099Z,10.22
